Time;durP1;ratioP1;P1;durP2;ratioP2;P2;SDS_P1;SDS_P2;PMS_P1;PMS_P2;Temp;Humidity;BMP_temperature;BMP_pressure;BME280_temperature;BME280_humidity;BME280_pressure;Samples;Min_cycle;Max_cycle;Signal;HPM_P1;HPM_P2
2023/09/04 00:02:10;;;;;;;7.30;5.40;;;;;;;13.28;100.00;101584.91;4974093;28;20205;-75
2023/09/04 00:04:37;;;;;;;7.80;6.33;;;;;;;13.17;100.00;101583.75;4970475;28;20221;-74
2023/09/04 00:07:03;;;;;;;8.37;6.03;;;;;;;13.15;100.00;101589.03;4971676;28;20237;-76
2023/09/04 00:09:30;;;;;;;8.37;6.50;;;;;;;13.11;100.00;101587.16;4968563;28;20261;-74
2023/09/04 00:11:56;;;;;;;8.67;6.47;;;;;;;13.12;100.00;101593.38;4970505;28;20662;-75
2023/09/04 00:14:22;;;;;;;8.73;6.77;;;;;;;13.09;100.00;101596.88;4979520;28;20214;-75
2023/09/04 00:16:49;;;;;;;8.53;6.57;;;;;;;13.05;100.00;101596.75;4976714;28;20248;-74
2023/09/04 00:19:17;;;;;;;8.67;5.60;;;;;;;12.96;100.00;101600.13;4969844;28;20226;-76
2023/09/04 00:21:43;;;;;;;7.73;6.07;;;;;;;12.86;100.00;101600.78;4971210;28;20264;-74
2023/09/04 00:24:10;;;;;;;12.03;6.70;;;;;;;12.82;100.00;101598.91;4971747;28;20295;-75
2023/09/04 00:26:36;;;;;;;8.03;6.30;;;;;;;12.76;100.00;101596.06;4967231;28;20232;-76
2023/09/04 00:29:03;;;;;;;8.43;6.10;;;;;;;12.72;100.00;101592.44;4983516;28;20213;-74
2023/09/04 00:31:29;;;;;;;8.63;6.60;;;;;;;12.73;100.00;101601.31;4968869;28;20209;-74
2023/09/04 00:33:55;;;;;;;10.30;7.17;;;;;;;12.70;100.00;101591.53;4976150;28;20204;-75
2023/09/04 00:36:22;;;;;;;8.00;6.33;;;;;;;12.70;100.00;101596.84;4967537;28;20728;-76
2023/09/04 00:38:48;;;;;;;8.80;6.27;;;;;;;12.69;100.00;101599.47;4969810;28;20592;-75
2023/09/04 00:41:18;;;;;;;10.17;6.27;;;;;;;12.74;100.00;101600.47;4970765;28;20232;-75
2023/09/04 00:43:45;;;;;;;9.77;6.50;;;;;;;12.84;100.00;101603.41;4976230;28;20201;-76
2023/09/04 00:46:11;;;;;;;10.13;5.97;;;;;;;12.86;100.00;101596.34;4969216;28;20228;-75
2023/09/04 00:48:38;;;;;;;8.53;6.60;;;;;;;12.82;100.00;101601.56;4969344;28;20229;-75
2023/09/04 00:51:05;;;;;;;7.60;5.70;;;;;;;12.70;100.00;101599.50;4984522;28;20230;-74
2023/09/04 00:53:33;;;;;;;8.57;6.27;;;;;;;12.65;100.00;101593.16;4967043;28;20682;-74
2023/09/04 00:56:02;;;;;;;7.67;5.63;;;;;;;12.68;100.00;101587.94;4972920;28;20288;-75
2023/09/04 00:58:29;;;;;;;8.77;6.37;;;;;;;12.76;100.00;101583.69;4973853;28;20232;-74
2023/09/04 01:00:55;;;;;;;9.23;6.43;;;;;;;12.82;100.00;101586.53;4986802;28;20229;-75
2023/09/04 01:03:22;;;;;;;8.40;6.40;;;;;;;12.77;100.00;101576.59;4964971;28;20206;-75
2023/09/04 01:05:49;;;;;;;9.07;6.23;;;;;;;12.65;100.00;101578.97;4988706;28;20662;-76
2023/09/04 01:08:16;;;;;;;10.43;6.17;;;;;;;12.55;100.00;101578.78;4967615;28;20205;-76
2023/09/04 01:10:57;;;;;;;8.47;5.40;;;;;;;12.52;100.00;101581.34;4967668;28;20594;-76
2023/09/04 01:13:37;;;;;;;9.07;6.20;;;;;;;12.54;100.00;101576.06;4971688;28;20201;-76
2023/09/04 01:16:05;;;;;;;9.90;5.50;;;;;;;12.51;100.00;101581.31;4967285;28;20226;-76
2023/09/04 01:18:32;;;;;;;7.93;6.00;;;;;;;12.47;100.00;101579.44;4989017;28;20201;-75
2023/09/04 01:20:59;;;;;;;8.27;5.73;;;;;;;12.40;100.00;101574.81;4970481;28;20267;-75
2023/09/04 01:23:26;;;;;;;9.03;5.87;;;;;;;12.36;100.00;101578.25;4967109;28;20213;-75
2023/09/04 01:25:58;;;;;;;7.43;5.93;;;;;;;12.29;100.00;101574.56;4962350;28;20222;-75
2023/09/04 01:28:31;;;;;;;10.77;5.70;;;;;;;12.24;100.00;101581.50;4962773;28;20217;-74
2023/09/04 01:31:19;;;;;;;7.23;5.70;;;;;;;12.18;100.00;101576.03;4968203;28;20222;-76
2023/09/04 01:33:50;;;;;;;7.00;5.40;;;;;;;12.13;100.00;101577.69;4967384;28;20209;-74
2023/09/04 01:36:18;;;;;;;9.50;6.27;;;;;;;12.13;100.00;101581.25;4968418;28;20198;-74
2023/09/04 01:38:47;;;;;;;6.93;5.60;;;;;;;12.10;100.00;101567.88;4967974;28;20212;-76
2023/09/04 01:41:14;;;;;;;7.27;5.30;;;;;;;12.08;100.00;101577.56;4970884;28;20239;-75
2023/09/04 01:43:40;;;;;;;6.73;5.40;;;;;;;12.02;100.00;101568.56;4976925;28;20229;-76
2023/09/04 01:46:07;;;;;;;7.80;6.13;;;;;;;12.00;100.00;101570.25;4973512;28;20231;-76
2023/09/04 01:48:34;;;;;;;7.43;5.93;;;;;;;11.96;100.00;101568.38;4972145;28;20201;-76
2023/09/04 01:51:01;;;;;;;8.07;5.93;;;;;;;11.98;100.00;101564.88;4966439;28;20592;-74
2023/09/04 01:53:27;;;;;;;7.50;5.67;;;;;;;11.99;100.00;101564.03;4969106;28;20209;-74
2023/09/04 01:55:54;;;;;;;8.33;5.83;;;;;;;12.02;100.00;101560.59;4968670;28;20576;-76
2023/09/04 01:58:20;;;;;;;8.37;5.63;;;;;;;12.03;100.00;101557.97;4967932;28;20206;-75
2023/09/04 02:00:50;;;;;;;7.43;5.90;;;;;;;12.03;100.00;101559.72;4970354;28;20237;-75
2023/09/04 02:03:16;;;;;;;7.97;5.90;;;;;;;12.03;100.00;101551.75;4973530;28;20637;-75
2023/09/04 02:05:43;;;;;;;7.90;6.03;;;;;;;12.05;100.00;101552.69;4986079;28;20562;-75
2023/09/04 02:08:09;;;;;;;7.73;6.30;;;;;;;12.05;100.00;101556.25;4973394;28;20212;-75
2023/09/04 02:10:36;;;;;;;8.23;5.80;;;;;;;12.05;100.00;101560.66;4966016;28;20224;-75
2023/09/04 02:13:02;;;;;;;9.70;6.60;;;;;;;12.04;100.00;101562.44;4971974;28;20232;-74
2023/09/04 02:15:29;;;;;;;8.43;6.30;;;;;;;12.01;100.00;101559.69;4986124;28;20197;-75
2023/09/04 02:17:56;;;;;;;7.50;5.90;;;;;;;11.98;100.00;101566.66;4969495;28;20212;-75
2023/09/04 02:20:22;;;;;;;6.80;5.60;;;;;;;11.96;100.00;101566.59;4964848;28;20320;-75
2023/09/04 02:22:49;;;;;;;7.57;6.17;;;;;;;11.96;100.00;101568.38;4965055;28;20213;-75
2023/09/04 02:25:15;;;;;;;7.87;5.43;;;;;;;11.98;100.00;101559.56;4971437;28;20234;-74
2023/09/04 02:27:42;;;;;;;7.53;6.03;;;;;;;11.99;100.00;101557.81;4974604;28;20212;-76
2023/09/04 02:30:08;;;;;;;8.07;6.20;;;;;;;12.00;100.00;101556.97;4988920;28;20387;-75
2023/09/04 02:32:35;;;;;;;9.13;6.40;;;;;;;11.98;100.00;101562.22;4966637;28;20209;-76
2023/09/04 02:35:01;;;;;;;8.80;6.47;;;;;;;11.98;100.00;101562.22;4967646;28;20201;-76
2023/09/04 02:37:27;;;;;;;8.73;6.40;;;;;;;11.98;100.00;101558.69;4966483;28;21224;-75
2023/09/04 02:39:54;;;;;;;9.30;6.57;;;;;;;11.97;100.00;101560.44;4969981;28;20304;-75
2023/09/04 02:42:20;;;;;;;7.83;5.90;;;;;;;11.95;100.00;101567.47;4969910;28;20208;-77
2023/09/04 02:44:47;;;;;;;8.27;6.17;;;;;;;11.96;100.00;101565.72;4971193;28;20208;-76
2023/09/04 02:47:13;;;;;;;9.27;6.57;;;;;;;11.98;100.00;101567.53;4969792;28;20224;-76
2023/09/04 02:49:39;;;;;;;9.37;6.83;;;;;;;11.98;100.00;101564.88;4966351;28;20251;-76
2023/09/04 02:52:06;;;;;;;9.40;6.23;;;;;;;11.92;100.00;101562.97;4969362;28;20299;-75
2023/09/04 02:54:32;;;;;;;7.90;6.40;;;;;;;11.88;100.00;101569.06;4972208;28;20219;-75
2023/09/04 02:56:58;;;;;;;9.30;6.87;;;;;;;11.85;100.00;101562.78;4971583;28;20283;-77
2023/09/04 02:59:25;;;;;;;8.93;6.40;;;;;;;11.82;100.00;101566.25;4971523;28;20412;-76
2023/09/04 03:01:52;;;;;;;7.90;6.40;;;;;;;11.82;100.00;101560.94;4983544;28;20682;-75
2023/09/04 03:04:18;;;;;;;8.33;6.70;;;;;;;11.80;100.00;101560.00;4979321;28;20244;-76
2023/09/04 03:06:45;;;;;;;8.40;6.10;;;;;;;11.84;100.00;101555.66;4972149;28;20323;-76
2023/09/04 03:09:15;;;;;;;8.83;6.50;;;;;;;11.85;100.00;101546.84;4970212;28;20219;-75
2023/09/04 03:11:41;;;;;;;9.97;6.80;;;;;;;11.89;100.00;101556.69;4974412;28;20196;-74
2023/09/04 03:14:08;;;;;;;9.20;6.67;;;;;;;11.92;100.00;101547.03;4968745;28;20564;-75
2023/09/04 03:16:34;;;;;;;8.50;6.50;;;;;;;11.91;100.00;101550.56;4966362;28;20587;-76
2023/09/04 03:19:01;;;;;;;11.53;6.70;;;;;;;11.99;100.00;101549.84;4968318;28;20778;-76
2023/09/04 03:21:28;;;;;;;12.83;7.23;;;;;;;12.01;100.00;101556.09;4971097;28;20209;-76
2023/09/04 03:23:54;;;;;;;10.90;7.33;;;;;;;11.99;100.00;101552.50;4968085;28;20560;-74
2023/09/04 03:26:20;;;;;;;9.23;6.67;;;;;;;11.93;100.00;101551.50;4970253;28;20225;-74
2023/09/04 03:28:47;;;;;;;8.93;6.47;;;;;;;11.88;100.00;101542.53;4966160;28;20216;-75
2023/09/04 03:31:14;;;;;;;9.47;6.93;;;;;;;11.89;100.00;101549.63;4967413;28;20433;-74
2023/09/04 03:33:41;;;;;;;11.37;6.83;;;;;;;11.94;100.00;101552.41;4964667;28;20704;-75
2023/09/04 03:36:09;;;;;;;9.27;6.30;;;;;;;11.87;100.00;101548.69;4966445;28;20216;-77
2023/09/04 03:38:36;;;;;;;7.77;6.07;;;;;;;11.83;100.00;101549.47;4966528;28;20228;-80
2023/09/04 03:41:02;;;;;;;8.47;6.40;;;;;;;11.79;100.00;101557.31;4969010;28;20311;-81
2023/09/04 03:43:29;;;;;;;10.23;6.37;;;;;;;11.75;100.00;101556.28;4968689;28;20205;-80
2023/09/04 03:45:55;;;;;;;9.53;5.70;;;;;;;11.69;100.00;101561.44;4970934;28;20229;-78
2023/09/04 03:48:24;;;;;;;9.13;6.67;;;;;;;11.73;100.00;101563.31;4969826;28;20236;-81
2023/09/04 03:50:51;;;;;;;7.93;6.03;;;;;;;11.73;100.00;101562.41;4970346;28;20699;-79
2023/09/04 03:53:17;;;;;;;7.83;6.03;;;;;;;11.66;100.00;101556.03;4968287;28;20209;-78
2023/09/04 03:55:44;;;;;;;8.20;6.27;;;;;;;11.62;100.00;101562.13;4968323;28;20243;-77
2023/09/04 03:58:10;;;;;;;8.13;5.93;;;;;;;11.57;100.00;101556.66;4969830;28;20703;-78
2023/09/04 04:00:37;;;;;;;9.07;6.23;;;;;;;11.50;100.00;101549.41;4966457;28;20228;-75
2023/09/04 04:03:04;;;;;;;9.60;6.27;;;;;;;11.51;100.00;101555.59;4967825;28;20683;-75
2023/09/04 04:05:31;;;;;;;8.07;6.20;;;;;;;11.50;100.00;101557.34;4967101;28;20221;-76
2023/09/04 04:07:57;;;;;;;7.13;5.50;;;;;;;11.46;100.00;101552.81;4970604;28;20213;-77
2023/09/04 04:10:24;;;;;;;9.37;6.50;;;;;;;11.56;100.00;101556.63;4968438;28;20237;-79
2023/09/04 04:12:52;;;;;;;9.37;6.20;;;;;;;11.56;100.00;101554.88;4968037;28;20203;-82
2023/09/04 04:15:18;;;;;;;11.73;6.63;;;;;;;11.69;100.00;101548.16;4969543;28;20209;-81
2023/09/04 04:17:45;;;;;;;13.33;6.70;;;;;;;11.68;100.00;101559.63;4965065;28;20204;-81
2023/09/04 04:20:12;;;;;;;9.33;6.50;;;;;;;11.59;100.00;101565.56;4998642;22;20277;-65
2023/09/04 04:22:42;;;;;;;9.37;6.30;;;;;;;11.46;100.00;101560.78;5009784;28;20214;-68
2023/09/04 04:25:10;;;;;;;10.77;6.33;;;;;;;11.45;100.00;101572.25;5007133;28;20628;-67
2023/09/04 04:27:38;;;;;;;9.20;6.00;;;;;;;11.48;100.00;101577.63;5007044;28;20219;-68
2023/09/04 04:30:06;;;;;;;7.93;6.17;;;;;;;11.54;100.00;101569.84;5004960;28;20223;-69
2023/09/04 04:32:32;;;;;;;11.50;6.63;;;;;;;11.61;100.00;101568.28;5002592;28;20211;-69
2023/09/04 04:34:59;;;;;;;11.40;6.70;;;;;;;11.70;100.00;101565.88;5003319;28;20274;-67
2023/09/04 04:37:25;;;;;;;11.17;8.03;;;;;;;11.85;100.00;101570.75;5001131;28;20621;-69
2023/09/04 04:39:52;;;;;;;15.13;8.80;;;;;;;11.92;100.00;101562.97;5001268;28;20227;-67
2023/09/04 04:42:19;;;;;;;14.90;8.90;;;;;;;12.04;100.00;101564.19;5001654;28;20484;-67
2023/09/04 04:44:45;;;;;;;13.20;9.00;;;;;;;12.05;100.00;101568.63;4997868;28;20210;-69
2023/09/04 04:47:11;;;;;;;14.77;9.17;;;;;;;12.09;100.00;101570.50;4998152;28;20224;-67
2023/09/04 04:49:38;;;;;;;11.83;8.17;;;;;;;12.09;100.00;101570.50;4996110;28;20720;-69
2023/09/04 04:52:05;;;;;;;12.50;7.70;;;;;;;12.05;100.00;101573.94;5001836;28;20520;-67
2023/09/04 04:54:31;;;;;;;10.70;7.30;;;;;;;12.03;100.00;101573.00;4999436;28;20208;-67
2023/09/04 04:56:57;;;;;;;11.37;7.30;;;;;;;11.99;100.00;101573.75;4999020;28;20204;-67
2023/09/04 04:59:24;;;;;;;9.93;6.87;;;;;;;11.97;100.00;101572.81;4997603;28;20206;-67
2023/09/04 05:01:50;;;;;;;9.90;7.00;;;;;;;11.95;100.00;101579.84;5004663;28;20563;-68
2023/09/04 05:04:17;;;;;;;10.60;7.30;;;;;;;11.94;100.00;101581.59;5002616;28;20208;-69
2023/09/04 05:06:46;;;;;;;9.10;7.20;;;;;;;11.98;100.00;101583.47;5000552;28;20227;-69
2023/09/04 05:09:12;;;;;;;13.47;7.87;;;;;;;12.00;100.00;101578.19;5004410;28;20246;-70
2023/09/04 05:11:38;;;;;;;13.07;8.20;;;;;;;12.00;100.00;101591.47;5004934;28;20228;-67
2023/09/04 05:14:05;;;;;;;11.93;7.23;;;;;;;11.99;100.00;101584.38;4998669;28;20227;-67
2023/09/04 05:16:31;;;;;;;11.40;7.50;;;;;;;11.98;100.00;101582.56;4996968;28;20288;-66
2023/09/04 05:18:58;;;;;;;10.37;7.00;;;;;;;11.97;100.00;101589.66;5005436;28;20565;-69
2023/09/04 05:21:24;;;;;;;9.27;6.67;;;;;;;11.98;100.00;101585.22;5004664;28;20235;-67
2023/09/04 05:23:51;;;;;;;10.43;7.03;;;;;;;11.97;100.00;101586.09;5001600;28;20208;-67
2023/09/04 05:26:18;;;;;;;10.47;6.43;;;;;;;12.00;100.00;101580.84;5003716;28;20616;-67
2023/09/04 05:28:44;;;;;;;9.10;6.80;;;;;;;12.08;100.00;101582.00;4995130;28;21520;-70
2023/09/04 05:31:10;;;;;;;12.50;8.10;;;;;;;12.15;100.00;101583.94;5003289;28;20224;-71
2023/09/04 05:33:37;;;;;;;11.57;7.37;;;;;;;12.27;100.00;101580.69;5003735;28;20201;-72
2023/09/04 05:36:04;;;;;;;9.10;6.73;;;;;;;12.33;100.00;101583.50;5009437;28;20621;-70
2023/09/04 05:38:30;;;;;;;9.97;7.10;;;;;;;12.37;100.00;101593.34;5005128;28;20200;-70
2023/09/04 05:40:59;;;;;;;8.87;6.93;;;;;;;12.41;100.00;101590.81;5007606;28;20255;-71
2023/09/04 05:43:26;;;;;;;9.87;6.77;;;;;;;12.50;100.00;101590.16;5004785;28;20204;-70
2023/09/04 05:45:53;;;;;;;11.63;7.50;;;;;;;12.59;100.00;101590.38;5002112;28;20598;-70
2023/09/04 05:48:19;;;;;;;8.67;6.50;;;;;;;12.72;100.00;101584.47;4997475;28;20213;-70
2023/09/04 05:50:45;;;;;;;9.87;7.27;;;;;;;12.83;100.00;101595.38;5008645;28;20227;-70
2023/09/04 05:53:15;;;;;;;10.47;7.10;;;;;;;12.97;100.00;101588.63;5005902;28;20200;-69
2023/09/04 05:55:42;;;;;;;9.27;6.30;;;;;;;13.09;100.00;101588.00;5005247;28;20211;-67
2023/09/04 05:58:10;;;;;;;7.57;6.37;;;;;;;13.25;100.00;101583.97;5011143;28;20348;-71
2023/09/04 06:00:37;;;;;;;10.80;6.50;;;;;;;13.44;100.00;101581.69;5004081;28;20247;-71
2023/09/04 06:03:03;;;;;;;8.70;6.27;;;;;;;13.65;100.00;101575.94;4995137;28;20200;-70
2023/09/04 06:05:30;;;;;;;8.40;5.93;;;;;;;13.79;100.00;101582.41;4993387;28;20211;-68
2023/09/04 06:07:56;;;;;;;12.20;5.30;;;;;;;14.14;100.00;101573.28;4998845;28;20220;-71
2023/09/04 06:10:23;;;;;;;7.73;4.87;;;;;;;14.32;100.00;101574.50;5005954;28;20228;-68
2023/09/04 06:12:49;;;;;;;7.70;5.00;;;;;;;14.64;100.00;101575.06;5005696;28;20262;-72
2023/09/04 06:15:16;;;;;;;5.63;4.60;;;;;;;14.88;100.00;101569.22;4995763;28;20700;-69
2023/09/04 06:17:42;;;;;;;6.20;4.17;;;;;;;15.04;100.00;101568.56;5022076;28;20224;-70
2023/09/04 06:20:09;;;;;;;5.77;4.77;;;;;;;15.23;100.00;101568.81;5005693;28;20228;-71
2023/09/04 06:22:35;;;;;;;6.30;4.30;;;;;;;15.39;100.00;101575.25;4992681;28;20216;-68
2023/09/04 06:25:02;;;;;;;5.93;4.20;;;;;;;15.57;100.00;101568.34;5002867;28;20228;-71
2023/09/04 06:27:28;;;;;;;4.97;3.93;;;;;;;15.58;100.00;101571.94;5003174;28;20216;-71
2023/09/04 06:29:55;;;;;;;5.37;4.17;;;;;;;15.71;100.00;101568.56;5009686;28;20220;-71
2023/09/04 06:32:21;;;;;;;9.43;4.10;;;;;;;15.77;100.00;101571.28;5011174;28;20204;-71
2023/09/04 06:34:47;;;;;;;5.20;4.07;;;;;;;15.88;100.00;101561.59;5004449;28;20676;-71
2023/09/04 06:37:14;;;;;;;4.30;3.90;;;;;;;16.01;100.00;101561.72;5002084;28;20196;-73
2023/09/04 06:39:41;;;;;;;8.27;4.47;;;;;;;16.16;100.00;101573.47;5004556;28;20225;-70
2023/09/04 06:42:08;;;;;;;13.07;4.83;;;;;;;16.34;100.00;101563.81;5003818;28;20195;-71
2023/09/04 06:44:35;;;;;;;9.17;4.77;;;;;;;16.49;100.00;101564.88;5015857;28;20206;-71
2023/09/04 06:47:01;;;;;;;6.03;3.93;;;;;;;16.57;100.00;101557.78;5000507;28;20223;-72
2023/09/04 06:49:29;;;;;;;9.10;4.40;;;;;;;16.66;100.00;101542.72;5006089;28;20611;-72
2023/09/04 06:51:55;;;;;;;15.20;5.50;;;;;;;16.75;100.00;101549.03;4998018;28;20208;-72
2023/09/04 06:54:22;;;;;;;8.97;4.80;;;;;;;16.79;100.00;101544.59;5003361;28;20215;-72
2023/09/04 06:56:48;;;;;;;5.27;4.03;;;;;;;16.87;100.00;101550.91;5005909;28;20614;-71
2023/09/04 06:59:15;;;;;;;7.00;4.03;;;;;;;16.98;100.00;101538.47;5004830;28;20687;-73
2023/09/04 07:01:42;;;;;;;5.90;4.30;;;;;;;16.99;100.00;101542.94;4996535;28;20204;-70
2023/09/04 07:04:08;;;;;;;8.83;4.40;;;;;;;17.20;100.00;101544.81;4996826;28;20196;-68
2023/09/04 07:06:35;;;;;;;7.00;4.70;;;;;;;17.94;100.00;101530.81;4999333;28;20230;-72
2023/09/04 07:09:01;;;;;;;6.00;4.30;;;;;;;18.52;100.00;101538.00;5005182;28;20204;-72
2023/09/04 07:11:28;;;;;;;7.07;4.13;;;;;;;20.11;100.00;101536.53;5000414;28;20234;-69
2023/09/04 07:13:54;;;;;;;5.73;4.10;;;;;;;20.91;100.00;101544.81;5006220;28;20204;-71
2023/09/04 07:16:20;;;;;;;6.07;4.07;;;;;;;21.44;100.00;101549.59;5009090;28;20212;-70
2023/09/04 07:19:05;;;;;;;6.30;4.13;;;;;;;21.85;100.00;101548.13;5016159;28;20686;-67
2023/09/04 07:21:32;;;;;;;6.07;3.90;;;;;;;21.56;100.00;101559.31;5001701;28;20223;-69
2023/09/04 07:23:58;;;;;;;4.67;3.70;;;;;;;22.08;100.00;101545.13;5014746;28;20204;-69
2023/09/04 07:26:25;;;;;;;4.13;3.47;;;;;;;21.68;100.00;101555.59;5004273;28;20800;-69
2023/09/04 07:28:53;;;;;;;7.07;4.27;;;;;;;21.71;100.00;101550.16;5000368;28;20211;-68
2023/09/04 07:31:20;;;;;;;5.93;3.87;;;;;;;21.62;100.00;101553.88;5013307;28;20228;-69
2023/09/04 07:33:48;;;;;;;4.80;3.80;;;;;;;21.26;100.00;101552.53;5007506;28;20253;-68
2023/09/04 07:36:15;;;;;;;5.00;3.80;;;;;;;21.38;100.00;101552.38;5003999;28;20204;-69
2023/09/04 07:38:43;;;;;;;6.00;3.93;;;;;;;21.13;100.00;101553.53;5007239;28;20196;-69
2023/09/04 07:41:10;;;;;;;8.27;4.33;;;;;;;20.69;100.00;101544.13;5006269;28;20255;-68
2023/09/04 07:43:36;;;;;;;7.00;3.67;;;;;;;20.57;100.00;101553.22;5004550;28;20250;-70
2023/09/04 07:46:03;;;;;;;10.33;3.77;;;;;;;20.08;100.00;101549.09;5008478;28;20211;-70
2023/09/04 07:48:31;;;;;;;8.23;3.77;;;;;;;20.02;100.00;101558.09;5009944;28;20612;-70
2023/09/04 07:50:58;;;;;;;5.10;3.77;;;;;;;19.78;100.00;101560.94;5005749;28;20243;-70
2023/09/04 07:53:24;;;;;;;7.20;3.83;;;;;;;19.54;100.00;101551.19;5011700;28;20262;-68
2023/09/04 07:55:51;;;;;;;4.30;3.63;;;;;;;19.60;100.00;101556.53;5017502;28;20205;-69
2023/09/04 07:58:20;;;;;;;6.53;4.10;;;;;;;19.50;100.00;101555.66;5005194;28;20275;-69
2023/09/04 08:00:48;;;;;;;6.77;4.10;;;;;;;19.54;100.00;101554.78;5018138;28;20369;-70
2023/09/04 08:03:16;;;;;;;6.95;3.70;;;;;;;19.56;100.00;101550.28;4998660;28;20233;-70
2023/09/04 08:05:43;;;;;;;4.35;3.60;;;;;;;19.65;100.00;101557.44;5008238;28;20204;-71
2023/09/04 08:08:10;;;;;;;5.75;3.55;;;;;;;19.76;100.00;101555.56;5004703;28;20316;-71
2023/09/04 08:10:40;;;;;;;5.10;3.47;;;;;;;19.84;100.00;101544.75;4994031;28;20251;-70
2023/09/04 08:13:12;;;;;;;8.20;3.92;;;;;;;19.81;100.00;101537.63;5007970;28;20231;-67
2023/09/04 08:15:40;;;;;;;4.70;3.72;;;;;;;19.79;100.00;101542.09;5005393;28;20677;-70
2023/09/04 08:18:07;;;;;;;4.72;3.30;;;;;;;19.92;100.00;101546.50;5001184;28;20642;-69
2023/09/04 08:20:35;;;;;;;7.40;4.03;;;;;;;20.01;100.00;101546.47;4999050;28;20252;-70
2023/09/04 08:23:03;;;;;;;6.00;3.58;;;;;;;20.17;100.00;101547.22;4998332;28;20246;-69
2023/09/04 08:25:31;;;;;;;6.75;3.63;;;;;;;20.01;100.00;101530.31;5015433;28;20206;-70
2023/09/04 08:28:02;;;;;;;7.10;3.40;;;;;;;20.14;100.00;101538.28;5020131;28;20216;-71
2023/09/04 08:30:29;;;;;;;4.50;3.50;;;;;;;20.17;100.00;101540.94;5007922;28;20314;-71
2023/09/04 08:32:56;;;;;;;5.55;3.42;;;;;;;20.31;100.00;101552.50;5002082;28;20210;-71
2023/09/04 08:35:24;;;;;;;7.25;4.03;;;;;;;20.31;100.00;101544.41;4983174;28;20212;-71
2023/09/04 08:37:51;;;;;;;4.45;3.38;;;;;;;20.44;100.00;101546.16;4999365;28;20682;-72
2023/09/04 08:40:17;;;;;;;8.10;3.50;;;;;;;20.61;100.00;101548.69;5006593;28;20537;-72
2023/09/04 08:42:45;;;;;;;9.15;3.33;;;;;;;20.72;100.00;101551.25;5000250;28;20197;-71
2023/09/04 08:45:16;;;;;;;4.72;3.58;;;;;;;20.74;100.00;101547.66;5019401;28;20196;-68
2023/09/04 08:47:43;;;;;;;4.68;3.17;;;;;;;20.88;100.00;101543.03;5005868;28;20314;-68
2023/09/04 08:50:13;;;;;;;5.13;3.65;;;;;;;21.07;100.00;101540.13;5001219;28;20236;-73
2023/09/04 08:52:40;;;;;;;5.47;3.40;;;;;;;21.29;100.00;101552.50;4999423;28;20230;-71
2023/09/04 08:55:08;;;;;;;5.70;3.60;;;;;;;21.47;100.00;101548.66;5006085;28;20218;-73
2023/09/04 08:57:34;;;;;;;4.13;3.15;;;;;;;21.66;98.31;101542.13;5005177;28;20196;-72
2023/09/04 09:00:02;;;;;;;5.57;3.60;;;;;;;21.80;90.41;101545.50;5009695;28;20610;-72
2023/09/04 09:02:29;;;;;;;3.60;3.22;;;;;;;21.92;84.36;101543.53;5021870;28;20216;-73
2023/09/04 09:04:57;;;;;;;4.20;2.97;;;;;;;21.90;78.29;101527.38;5004890;28;20196;-71
2023/09/04 09:07:27;;;;;;;5.38;3.10;;;;;;;22.05;77.75;101531.69;5002036;28;20449;-72
2023/09/04 09:09:55;;;;;;;7.00;3.08;;;;;;;22.11;76.99;101531.59;5007148;28;20228;-70
2023/09/04 09:12:22;;;;;;;3.58;2.85;;;;;;;22.01;74.14;101544.28;4998888;28;20285;-69
2023/09/04 09:14:48;;;;;;;4.53;3.30;;;;;;;21.89;72.70;101548.06;5004176;28;20210;-69
2023/09/04 09:17:15;;;;;;;5.40;3.00;;;;;;;21.89;72.41;101542.66;5004209;28;20743;-71
2023/09/04 09:19:43;;;;;;;6.95;3.08;;;;;;;22.07;71.94;101537.97;5003063;28;20659;-71
2023/09/04 09:22:19;;;;;;;4.07;3.30;;;;;;;22.09;71.31;101539.72;5006108;28;20661;-71
2023/09/04 09:24:52;;;;;;;5.25;3.47;;;;;;;22.19;72.11;101535.06;5003367;28;20289;-70
2023/09/04 09:27:20;;;;;;;5.43;3.20;;;;;;;22.31;70.59;101532.16;5000253;28;20231;-71
2023/09/04 09:29:51;;;;;;;4.47;3.50;;;;;;;22.42;68.78;101526.59;5004106;28;20704;-71
2023/09/04 09:32:19;;;;;;;7.63;3.33;;;;;;;22.35;69.78;101523.06;4999439;28;20209;-69
2023/09/04 09:35:03;;;;;;;9.70;3.55;;;;;;;22.38;70.21;101528.44;5002819;28;20296;-72
2023/09/04 09:37:33;;;;;;;4.80;3.47;;;;;;;22.43;68.44;101526.56;5004893;28;20702;-70
2023/09/04 09:40:00;;;;;;;5.00;3.17;;;;;;;22.58;66.71;101527.19;5004887;28;20447;-68
2023/09/04 09:42:26;;;;;;;5.28;3.05;;;;;;;22.44;67.28;101522.94;5004797;28;20225;-70
2023/09/04 09:44:53;;;;;;;5.80;3.05;;;;;;;22.44;66.46;101524.75;5007369;28;20278;-69
2023/09/04 09:47:21;;;;;;;7.60;3.40;;;;;;;22.31;66.37;101518.66;5001039;28;20347;-70
2023/09/04 09:49:47;;;;;;;5.95;2.78;;;;;;;22.22;65.91;101504.44;5005690;28;20223;-71
2023/09/04 09:52:15;;;;;;;4.13;3.15;;;;;;;22.30;65.78;101514.16;4996109;28;20284;-70
2023/09/04 09:54:46;;;;;;;7.03;3.13;;;;;;;22.57;66.68;101511.91;5000983;28;20809;-71
2023/09/04 09:57:14;;;;;;;5.45;3.03;;;;;;;22.69;65.02;101508.97;5004049;28;20239;-70
2023/09/04 09:59:43;;;;;;;3.42;2.60;;;;;;;22.88;65.30;101509.56;4995010;28;20716;-71
2023/09/04 10:02:17;;;;;;;4.97;2.97;;;;;;;23.13;63.98;101513.56;5003377;28;20948;-73
2023/09/04 10:04:44;;;;;;;5.60;2.90;;;;;;;23.39;63.51;101507.63;5001776;28;20206;-71
2023/09/04 10:07:16;;;;;;;6.63;3.10;;;;;;;23.30;61.68;101514.13;4999275;28;20196;-71
2023/09/04 10:09:45;;;;;;;4.22;3.10;;;;;;;23.23;62.18;101501.66;5003431;28;20228;-71
2023/09/04 10:12:29;;;;;;;5.97;3.10;;;;;;;23.35;62.96;101505.91;5001394;28;20211;-72
2023/09/04 10:14:59;;;;;;;7.07;2.63;;;;;;;23.53;62.15;101497.38;5002160;28;20195;-74
2023/09/04 10:17:40;;;;;;;5.13;3.08;;;;;;;23.36;60.32;101497.75;4999074;28;20204;-72
2023/09/04 10:20:09;;;;;;;6.75;3.00;;;;;;;23.26;60.55;101490.78;5015172;23;20220;-72
2023/09/04 10:22:46;;;;;;;4.53;3.00;;;;;;;23.38;61.93;101498.63;4996881;28;20239;-71
2023/09/04 10:25:31;;;;;;;3.83;2.65;;;;;;;23.60;61.49;101490.03;4998320;28;20222;-71
2023/09/04 10:28:09;;;;;;;4.93;3.05;;;;;;;23.61;60.11;101492.72;4997108;28;20244;-72
2023/09/04 10:30:38;;;;;;;5.20;3.05;;;;;;;23.52;61.48;101479.38;4997729;28;20985;-71
2023/09/04 10:33:06;;;;;;;6.68;3.00;;;;;;;23.50;60.72;101469.50;5003538;28;20323;-70
2023/09/04 10:35:33;;;;;;;3.40;2.75;;;;;;;23.30;60.75;101469.97;4999152;28;20253;-73
2023/09/04 10:38:00;;;;;;;5.00;2.90;;;;;;;23.30;60.91;101460.03;5001389;28;20274;-75
2023/09/04 10:40:31;;;;;;;4.22;2.80;;;;;;;23.42;61.00;101458.88;4997192;28;20734;-74
2023/09/04 10:43:03;;;;;;;4.68;2.85;;;;;;;23.66;59.30;101462.88;5001071;28;20258;-74
2023/09/04 10:45:30;;;;;;;3.25;2.78;;;;;;;23.71;57.92;101456.44;5001547;28;20546;-71
2023/09/04 10:47:57;;;;;;;4.82;2.85;;;;;;;23.89;57.86;101456.91;4991486;28;20227;-71
2023/09/04 10:50:34;;;;;;;7.40;2.70;;;;;;;23.93;56.41;101450.47;4996759;28;20354;-71
2023/09/04 10:53:02;;;;;;;4.72;2.75;;;;;;;23.93;55.33;101455.88;5014943;28;20223;-72
2023/09/04 10:55:29;;;;;;;4.22;2.85;;;;;;;23.81;55.81;101442.69;4999432;28;20204;-73
2023/09/04 10:57:58;;;;;;;7.80;2.67;;;;;;;23.91;56.20;101444.22;5002875;28;20575;-72
2023/09/04 11:00:34;;;;;;;7.18;3.00;;;;;;;24.02;55.50;101437.63;4995462;28;20229;-73
2023/09/04 11:03:14;;;;;;;7.55;2.58;;;;;;;24.32;54.60;101438.66;4998823;28;20200;-73
2023/09/04 11:06:02;;;;;;;3.75;2.60;;;;;;;24.44;52.44;101423.03;4994173;28;20339;-73
2023/09/04 11:08:29;;;;;;;3.03;2.40;;;;;;;24.63;52.74;101425.19;4996048;28;20220;-73
2023/09/04 11:11:04;;;;;;;6.25;2.35;;;;;;;24.76;52.07;101425.72;5000461;28;20234;-73
2023/09/04 11:13:36;;;;;;;5.70;2.30;;;;;;;24.83;50.19;101423.75;4999169;28;20278;-73
2023/09/04 11:16:05;;;;;;;5.28;2.15;;;;;;;24.86;48.10;101424.53;4999236;28;20211;-74
2023/09/04 11:18:33;;;;;;;4.47;2.30;;;;;;;25.03;48.21;101420.47;5000256;28;20591;-74
2023/09/04 11:21:00;;;;;;;4.88;2.30;;;;;;;24.92;48.91;101423.47;4994937;28;20648;-73